createdAt,value
2023-05-05T00:02:04.242Z,8.03
2023-05-05T00:04:33.611Z,8.11
2023-05-05T00:07:00.581Z,8.11
2023-05-05T00:09:27.030Z,8.05
2023-05-05T00:11:53.588Z,8.07
2023-05-05T00:14:20.076Z,8.06
2023-05-05T00:16:49.769Z,7.98
2023-05-05T00:19:16.283Z,8.03
2023-05-05T00:21:44.984Z,7.92
2023-05-05T00:24:11.583Z,7.84
2023-05-05T00:26:38.139Z,7.94
2023-05-05T00:29:04.718Z,7.86
2023-05-05T00:31:31.260Z,7.82
2023-05-05T00:33:57.848Z,7.87
2023-05-05T00:36:24.302Z,7.85
2023-05-05T00:38:54.102Z,7.83
2023-05-05T00:41:20.617Z,7.76
2023-05-05T00:43:47.392Z,7.80
2023-05-05T00:46:25.318Z,7.82
2023-05-05T00:48:52.092Z,7.86
2023-05-05T00:51:19.504Z,7.80
2023-05-05T00:53:46.303Z,7.77
2023-05-05T00:56:13.035Z,7.80
2023-05-05T00:58:44.251Z,7.82
2023-05-05T01:01:11.413Z,7.89
2023-05-05T01:03:39.167Z,7.86
2023-05-05T01:06:08.435Z,7.89
2023-05-05T01:08:44.829Z,7.87
2023-05-05T01:11:35.950Z,7.83
2023-05-05T01:14:13.309Z,7.81
2023-05-05T01:16:45.093Z,7.82
2023-05-05T01:19:23.456Z,7.87
2023-05-05T01:21:53.606Z,7.79
2023-05-05T01:24:20.191Z,7.75
2023-05-05T01:26:53.928Z,7.79
2023-05-05T01:29:31.226Z,7.71
2023-05-05T01:32:01.022Z,7.72
2023-05-05T01:34:53.818Z,7.75
2023-05-05T01:37:25.798Z,7.73
2023-05-05T01:39:57.614Z,7.68
2023-05-05T01:42:25.442Z,7.66
2023-05-05T01:44:52.498Z,7.56
2023-05-05T01:47:19.586Z,7.42
2023-05-05T01:49:47.160Z,7.34
2023-05-05T01:52:14.597Z,7.33
2023-05-05T01:54:42.331Z,7.37
2023-05-05T01:57:10.160Z,7.49
2023-05-05T01:59:38.066Z,7.55
2023-05-05T02:02:05.191Z,7.64
2023-05-05T02:04:33.219Z,7.62
2023-05-05T02:07:01.276Z,7.58
2023-05-05T02:09:29.145Z,7.51
2023-05-05T02:11:57.367Z,7.50
2023-05-05T02:14:26.652Z,7.35
2023-05-05T02:16:55.368Z,7.29
2023-05-05T02:19:22.348Z,7.27
2023-05-05T02:21:48.943Z,7.31
2023-05-05T02:24:16.174Z,7.31
2023-05-05T02:26:44.382Z,7.27
2023-05-05T02:29:17.929Z,7.24
2023-05-05T02:31:45.979Z,7.27
2023-05-05T02:34:14.676Z,7.32
2023-05-05T02:36:42.508Z,7.40
2023-05-05T02:39:12.796Z,7.35
2023-05-05T02:41:40.201Z,7.43
2023-05-05T02:44:08.418Z,7.48
2023-05-05T02:46:38.933Z,7.51
2023-05-05T02:49:05.411Z,7.52
2023-05-05T02:51:32.687Z,7.58
2023-05-05T02:53:59.622Z,7.59
2023-05-05T02:56:44.413Z,7.48
2023-05-05T02:59:24.263Z,7.35
2023-05-05T03:01:57.529Z,7.29
2023-05-05T03:04:41.157Z,7.25
2023-05-05T03:07:14.313Z,7.22
2023-05-05T03:09:45.737Z,7.22
2023-05-05T03:12:15.355Z,7.33
2023-05-05T03:14:46.139Z,7.31
2023-05-05T03:17:13.607Z,7.24
2023-05-05T03:19:44.296Z,7.17
2023-05-05T03:22:10.836Z,7.17
2023-05-05T03:24:37.361Z,7.25
2023-05-05T03:27:03.892Z,7.17
2023-05-05T03:29:30.419Z,7.07
2023-05-05T03:31:58.089Z,7.13
2023-05-05T03:34:26.516Z,7.21
2023-05-05T03:36:52.972Z,7.17
2023-05-05T03:39:19.532Z,7.22
2023-05-05T03:41:48.351Z,7.17
2023-05-05T03:44:17.991Z,7.19
2023-05-05T03:46:44.518Z,7.40
2023-05-05T03:49:11.207Z,7.44
2023-05-05T03:51:37.718Z,7.29
2023-05-05T03:54:04.262Z,7.42
2023-05-05T03:56:30.826Z,7.30
2023-05-05T03:58:57.338Z,7.40
2023-05-05T04:01:23.925Z,7.36
2023-05-05T04:03:50.518Z,7.29
2023-05-05T04:06:17.135Z,7.45
2023-05-05T04:08:43.640Z,7.39
2023-05-05T04:11:10.206Z,7.48
2023-05-05T04:13:39.631Z,7.39
2023-05-05T04:16:06.200Z,7.39
2023-05-05T04:18:32.768Z,7.42
2023-05-05T04:20:59.316Z,7.40
2023-05-05T04:23:25.833Z,7.22
2023-05-05T04:25:55.358Z,7.33
2023-05-05T04:28:25.929Z,7.44
2023-05-05T04:30:52.483Z,7.40
2023-05-05T04:33:19.129Z,7.39
2023-05-05T04:35:45.650Z,7.51
2023-05-05T04:38:16.152Z,7.52
2023-05-05T04:40:45.811Z,7.60
2023-05-05T04:43:13.395Z,7.64
2023-05-05T04:45:45.049Z,7.56
2023-05-05T04:48:14.623Z,7.83
2023-05-05T04:50:42.742Z,8.03
2023-05-05T04:53:09.406Z,8.13
2023-05-05T04:55:35.926Z,8.05
2023-05-05T04:58:03.640Z,8.12
2023-05-05T05:00:32.639Z,8.21
2023-05-05T05:03:01.512Z,8.20
2023-05-05T05:05:28.177Z,8.20
2023-05-05T05:07:55.144Z,8.31
2023-05-05T05:10:22.088Z,8.52
2023-05-05T05:12:50.482Z,8.59
2023-05-05T05:15:17.052Z,8.62
2023-05-05T05:17:46.509Z,8.66
2023-05-05T05:20:13.085Z,8.68
2023-05-05T05:22:43.893Z,8.75
2023-05-05T05:25:12.030Z,8.65
2023-05-05T05:27:38.841Z,8.48
2023-05-05T05:30:05.761Z,8.66
2023-05-05T05:32:32.534Z,8.47
2023-05-05T05:34:59.044Z,8.56
2023-05-05T05:37:28.708Z,8.54
2023-05-05T05:39:55.175Z,8.84
2023-05-05T05:42:22.035Z,8.86
2023-05-05T05:44:48.624Z,8.95
2023-05-05T05:47:15.317Z,8.97
2023-05-05T05:49:42.937Z,8.87
2023-05-05T05:52:09.488Z,8.76
2023-05-05T05:54:35.998Z,8.98
2023-05-05T05:57:05.699Z,9.21
2023-05-05T05:59:32.236Z,9.36
2023-05-05T06:01:58.893Z,9.35
2023-05-05T06:04:25.516Z,9.58
2023-05-05T06:06:52.244Z,9.57
2023-05-05T06:09:18.736Z,9.51
2023-05-05T06:11:45.266Z,9.62
2023-05-05T06:14:11.740Z,9.64
2023-05-05T06:16:38.576Z,9.76
2023-05-05T06:19:09.644Z,9.76
2023-05-05T06:21:39.234Z,9.97
2023-05-05T06:24:06.092Z,10.05
2023-05-05T06:26:32.671Z,10.45
2023-05-05T06:28:59.110Z,10.40
2023-05-05T06:31:25.820Z,10.48
2023-05-05T06:33:52.336Z,10.68
2023-05-05T06:36:18.886Z,10.88
2023-05-05T06:38:45.450Z,11.13
2023-05-05T06:41:14.716Z,11.28
2023-05-05T06:43:44.326Z,11.24
2023-05-05T06:46:11.422Z,10.79
2023-05-05T06:48:38.021Z,10.73
2023-05-05T06:51:04.609Z,10.81
2023-05-05T06:53:31.085Z,11.10
2023-05-05T06:55:57.582Z,11.06
2023-05-05T06:58:24.084Z,11.23
2023-05-05T07:00:50.625Z,11.07
2023-05-05T07:03:17.313Z,11.21
2023-05-05T07:05:43.909Z,11.25
2023-05-05T07:08:11.409Z,11.28
2023-05-05T07:10:38.285Z,11.09
2023-05-05T07:13:05.003Z,11.18
2023-05-05T07:15:31.556Z,11.28
2023-05-05T07:17:58.368Z,11.49
2023-05-05T07:20:25.256Z,11.62
2023-05-05T07:22:52.044Z,11.82
2023-05-05T07:25:19.707Z,12.05
2023-05-05T07:27:47.125Z,12.15
2023-05-05T07:30:16.566Z,12.29
2023-05-05T07:32:45.201Z,12.44
2023-05-05T07:35:11.853Z,12.49
2023-05-05T07:37:38.342Z,12.61
2023-05-05T07:40:05.181Z,12.83
2023-05-05T07:42:31.823Z,13.20
2023-05-05T07:44:58.520Z,13.03
2023-05-05T07:47:25.213Z,13.17
2023-05-05T07:49:52.109Z,13.37
2023-05-05T07:52:19.430Z,13.66
2023-05-05T07:54:48.639Z,13.77
2023-05-05T07:57:15.961Z,13.92
2023-05-05T07:59:45.772Z,14.11
2023-05-05T08:02:13.705Z,14.12
2023-05-05T08:04:40.792Z,13.93
2023-05-05T08:07:08.307Z,13.93
2023-05-05T08:09:38.653Z,14.30
2023-05-05T08:12:05.928Z,14.66
2023-05-05T08:14:33.000Z,14.36
2023-05-05T08:16:59.795Z,14.37
2023-05-05T08:19:29.213Z,14.69
2023-05-05T08:21:56.441Z,14.88
2023-05-05T08:24:23.033Z,14.92
2023-05-05T08:26:49.649Z,14.81
2023-05-05T08:29:16.184Z,14.77
2023-05-05T08:31:42.928Z,15.13
2023-05-05T08:34:09.577Z,15.22
2023-05-05T08:36:36.276Z,15.02
2023-05-05T08:39:02.978Z,15.26
2023-05-05T08:41:29.657Z,14.99
2023-05-05T08:43:56.334Z,15.02
2023-05-05T08:46:28.258Z,15.07
2023-05-05T08:48:55.982Z,15.18
2023-05-05T08:51:33.007Z,15.56
2023-05-05T08:54:05.831Z,15.81
2023-05-05T08:56:39.945Z,16.00
2023-05-05T08:59:08.636Z,16.03
2023-05-05T09:01:36.303Z,16.29
2023-05-05T09:04:04.631Z,16.18
2023-05-05T09:06:33.785Z,15.94
2023-05-05T09:09:01.215Z,16.15
2023-05-05T09:11:28.334Z,16.52
2023-05-05T09:13:55.713Z,16.14
2023-05-05T09:16:25.013Z,16.32
2023-05-05T09:19:01.254Z,16.68
2023-05-05T09:21:28.085Z,16.39
2023-05-05T09:24:09.057Z,16.48
2023-05-05T09:26:44.152Z,16.37
2023-05-05T09:29:18.560Z,16.39
2023-05-05T09:31:45.204Z,16.33
2023-05-05T09:34:16.026Z,16.30
2023-05-05T09:36:48.348Z,16.48
2023-05-05T09:39:17.707Z,16.67
2023-05-05T09:41:44.941Z,16.76
2023-05-05T09:44:12.801Z,16.58
2023-05-05T09:46:51.196Z,16.49
2023-05-05T09:49:26.887Z,16.19
2023-05-05T09:51:54.887Z,16.58
2023-05-05T09:54:32.826Z,16.76
2023-05-05T09:56:59.422Z,16.83
2023-05-05T09:59:26.053Z,16.76
2023-05-05T10:01:52.702Z,16.79
2023-05-05T10:04:26.544Z,16.75
2023-05-05T10:06:53.203Z,16.62
2023-05-05T10:09:19.985Z,16.78
2023-05-05T10:11:47.654Z,16.70
2023-05-05T10:14:16.199Z,16.93
2023-05-05T10:16:52.097Z,17.05
2023-05-05T10:19:24.226Z,17.10
2023-05-05T10:21:53.315Z,16.64
2023-05-05T10:24:40.023Z,16.54
2023-05-05T10:27:17.401Z,16.56
2023-05-05T10:30:02.322Z,16.70
2023-05-05T10:35:22.969Z,16.65
2023-05-05T10:37:52.989Z,16.57
2023-05-05T10:40:25.252Z,16.75
2023-05-05T10:42:55.675Z,16.68
2023-05-05T10:45:22.825Z,16.33
2023-05-05T10:47:51.263Z,16.21
2023-05-05T10:50:24.049Z,16.20
2023-05-05T10:53:12.688Z,16.63
2023-05-05T10:56:27.463Z,16.87
2023-05-05T10:59:00.259Z,16.99
2023-05-05T11:01:36.468Z,16.91
2023-05-05T11:04:18.353Z,17.15
2023-05-05T11:07:13.462Z,17.23
2023-05-05T11:10:04.686Z,17.28
2023-05-05T11:13:14.243Z,17.24
2023-05-05T11:15:41.671Z,17.53
2023-05-05T11:18:27.622Z,17.69
2023-05-05T11:20:59.985Z,17.61
2023-05-05T11:23:27.544Z,17.63
2023-05-05T11:25:55.547Z,17.80
2023-05-05T11:28:31.179Z,18.12
2023-05-05T11:30:58.825Z,18.02
2023-05-05T11:33:33.587Z,18.10
2023-05-05T11:36:04.177Z,18.11
2023-05-05T11:38:56.667Z,18.04
2023-05-05T11:41:29.370Z,18.39
2023-05-05T11:44:29.454Z,18.86
2023-05-05T11:47:02.023Z,18.74
2023-05-05T11:49:32.614Z,19.02
2023-05-05T11:52:05.357Z,19.04
2023-05-05T11:54:32.647Z,19.00
2023-05-05T11:57:02.308Z,18.73
2023-05-05T11:59:28.914Z,18.70
2023-05-05T12:01:55.709Z,18.84
2023-05-05T12:04:22.585Z,18.66
2023-05-05T12:06:52.178Z,18.35
2023-05-05T12:09:23.388Z,18.42
2023-05-05T12:11:53.611Z,18.60
2023-05-05T12:14:20.810Z,18.29
2023-05-05T12:17:04.369Z,18.63
2023-05-05T12:19:33.478Z,18.77
2023-05-05T12:22:04.676Z,18.88
2023-05-05T12:24:31.558Z,18.97
2023-05-05T12:27:11.255Z,19.38
2023-05-05T12:29:37.912Z,19.68
2023-05-05T12:32:04.834Z,20.01
2023-05-05T12:34:32.280Z,20.22
2023-05-05T12:36:59.115Z,20.50
2023-05-05T12:39:36.320Z,20.52
2023-05-05T12:42:06.696Z,20.25
2023-05-05T12:44:37.748Z,20.36
2023-05-05T12:47:05.054Z,20.50
2023-05-05T12:49:34.552Z,20.38
2023-05-05T12:52:01.146Z,20.01
2023-05-05T12:54:30.731Z,20.00
2023-05-05T12:56:58.606Z,20.16
2023-05-05T12:59:25.205Z,19.81
2023-05-05T13:01:54.597Z,20.02
2023-05-05T13:04:25.063Z,19.71
2023-05-05T13:07:12.380Z,19.48
2023-05-05T13:09:39.246Z,20.76
2023-05-05T13:12:08.376Z,21.00
2023-05-05T13:14:36.389Z,20.78
2023-05-05T13:17:03.084Z,21.30
2023-05-05T13:19:29.989Z,21.34
2023-05-05T13:21:57.640Z,21.26
2023-05-05T13:24:38.127Z,21.77
2023-05-05T13:27:09.396Z,21.81
2023-05-05T13:29:36.382Z,21.61
2023-05-05T13:32:03.160Z,20.77
2023-05-05T13:34:29.901Z,20.60
2023-05-05T13:36:56.627Z,20.76
2023-05-05T13:39:23.300Z,20.12
2023-05-05T13:41:49.910Z,19.83
2023-05-05T13:44:16.637Z,19.55
2023-05-05T13:46:43.460Z,19.59
2023-05-05T13:49:10.327Z,20.20
2023-05-05T13:51:38.364Z,20.93
2023-05-05T13:54:06.034Z,21.03
2023-05-05T13:56:40.128Z,20.93
2023-05-05T13:59:13.700Z,20.69
2023-05-05T14:01:40.558Z,21.05
2023-05-05T14:04:07.354Z,21.08
2023-05-05T14:06:34.027Z,20.55
2023-05-05T14:09:00.766Z,20.22
2023-05-05T14:11:27.491Z,19.75
2023-05-05T14:13:57.784Z,19.70
2023-05-05T14:16:24.461Z,19.67
2023-05-05T14:18:57.466Z,20.82
2023-05-05T14:21:24.284Z,20.37
2023-05-05T14:23:50.947Z,20.69
2023-05-05T14:26:17.958Z,20.64
2023-05-05T14:28:46.703Z,20.39
2023-05-05T14:31:14.660Z,20.36
2023-05-05T14:33:41.267Z,20.79
2023-05-05T14:36:11.484Z,20.98
2023-05-05T14:38:38.190Z,21.98
2023-05-05T14:41:07.022Z,22.00
2023-05-05T14:43:33.822Z,23.10
2023-05-05T14:46:02.448Z,23.82
2023-05-05T14:48:29.262Z,24.42
2023-05-05T14:50:59.348Z,25.01
2023-05-05T14:53:26.788Z,25.40
2023-05-05T14:56:16.854Z,24.89
2023-05-05T14:58:43.713Z,25.59
2023-05-05T15:01:10.494Z,26.41
2023-05-05T15:03:43.474Z,26.30
2023-05-05T15:06:10.170Z,26.51
2023-05-05T15:08:39.021Z,26.70
2023-05-05T15:11:20.301Z,25.80
2023-05-05T15:13:46.907Z,26.35
2023-05-05T15:16:13.530Z,26.45
2023-05-05T15:18:43.106Z,26.73
2023-05-05T15:21:09.836Z,26.93
2023-05-05T15:23:36.455Z,27.19
2023-05-05T15:26:03.174Z,27.50
2023-05-05T15:28:29.864Z,26.98
2023-05-05T15:30:56.508Z,23.59
2023-05-05T15:33:23.169Z,23.22
2023-05-05T15:35:49.768Z,25.71
2023-05-05T15:38:16.347Z,26.78
2023-05-05T15:40:44.562Z,27.61
2023-05-05T15:43:11.295Z,28.28
2023-05-05T15:45:41.184Z,28.30
2023-05-05T15:48:08.476Z,29.15
2023-05-05T15:50:35.153Z,29.81
2023-05-05T15:53:01.825Z,29.60
2023-05-05T15:55:28.574Z,29.63
2023-05-05T15:57:55.306Z,29.96
2023-05-05T16:00:22.545Z,30.42
2023-05-05T16:02:49.596Z,30.80
2023-05-05T16:05:16.347Z,31.16
2023-05-05T16:07:53.419Z,30.51
2023-05-05T16:10:23.368Z,30.26
2023-05-05T16:12:52.847Z,29.22
2023-05-05T16:15:19.826Z,29.50
2023-05-05T16:17:46.485Z,29.90
2023-05-05T16:20:13.207Z,29.50
2023-05-05T16:22:46.075Z,25.75
2023-05-05T16:25:12.714Z,23.44
2023-05-05T16:27:39.434Z,21.89
2023-05-05T16:30:07.229Z,21.30
2023-05-05T16:32:33.818Z,21.26
2023-05-05T16:35:09.310Z,20.91
2023-05-05T16:37:36.157Z,23.44
2023-05-05T16:40:19.737Z,26.04
2023-05-05T16:42:49.626Z,25.83
2023-05-05T16:45:16.326Z,24.80
2023-05-05T16:47:42.986Z,22.47
2023-05-05T16:50:09.958Z,21.00
2023-05-05T16:52:36.606Z,20.31
2023-05-05T16:55:08.312Z,19.82
2023-05-05T16:57:36.323Z,19.52
2023-05-05T17:00:12.673Z,19.52
2023-05-05T17:02:39.471Z,18.81
2023-05-05T17:05:06.701Z,18.76
2023-05-05T17:07:33.443Z,18.67
2023-05-05T17:10:00.309Z,18.30
2023-05-05T17:12:26.903Z,17.99
2023-05-05T17:14:59.928Z,17.95
2023-05-05T17:17:26.771Z,17.88
2023-05-05T17:19:53.485Z,17.58
2023-05-05T17:22:20.181Z,17.41
2023-05-05T17:24:46.764Z,17.24
2023-05-05T17:27:13.649Z,17.19
2023-05-05T17:29:41.356Z,16.95
2023-05-05T17:32:12.282Z,16.55
2023-05-05T17:34:38.922Z,16.47
2023-05-05T17:37:05.630Z,16.35
2023-05-05T17:39:33.046Z,16.37
2023-05-05T17:41:59.646Z,16.28
2023-05-05T17:44:26.300Z,16.29
2023-05-05T17:46:52.963Z,16.14
2023-05-05T17:49:21.460Z,16.04
2023-05-05T17:52:02.951Z,15.97
2023-05-05T17:54:29.663Z,15.68
2023-05-05T17:56:56.441Z,15.48
2023-05-05T17:59:23.200Z,15.58
2023-05-05T18:01:49.847Z,15.48
2023-05-05T18:04:16.559Z,15.53
2023-05-05T18:06:43.290Z,15.56
2023-05-05T18:09:11.266Z,15.54
2023-05-05T18:11:37.997Z,15.24
2023-05-05T18:14:07.907Z,15.11
2023-05-05T18:16:37.706Z,14.98
2023-05-05T18:19:04.471Z,14.89
2023-05-05T18:21:32.156Z,14.81
2023-05-05T18:24:07.665Z,14.67
2023-05-05T18:26:49.078Z,14.75
2023-05-05T18:29:16.857Z,14.79
2023-05-05T18:31:48.681Z,14.87
2023-05-05T18:34:16.824Z,14.75
2023-05-05T18:36:43.655Z,14.75
2023-05-05T18:39:10.318Z,14.60
2023-05-05T18:41:37.080Z,14.57
2023-05-05T18:44:03.929Z,14.45
2023-05-05T18:46:30.770Z,14.41
2023-05-05T18:48:57.371Z,14.41
2023-05-05T18:51:23.901Z,14.36
2023-05-05T18:53:50.613Z,14.48
2023-05-05T18:56:17.262Z,14.37
2023-05-05T18:58:44.290Z,14.31
2023-05-05T19:01:10.976Z,14.30
2023-05-05T19:03:37.670Z,14.36
2023-05-05T19:06:07.639Z,14.39
2023-05-05T19:08:34.353Z,14.32
2023-05-05T19:11:00.985Z,14.21
2023-05-05T19:13:27.554Z,14.19
2023-05-05T19:15:57.097Z,14.27
2023-05-05T19:18:24.244Z,14.25
2023-05-05T19:20:51.040Z,14.06
2023-05-05T19:23:17.711Z,13.83
2023-05-05T19:25:44.640Z,13.73
2023-05-05T19:28:12.026Z,13.70
2023-05-05T19:30:38.804Z,13.64
2023-05-05T19:33:05.771Z,13.59
2023-05-05T19:35:32.489Z,13.49
2023-05-05T19:37:59.710Z,13.50
2023-05-05T19:40:26.299Z,13.55
2023-05-05T19:42:53.059Z,13.51
2023-05-05T19:45:19.735Z,13.50
2023-05-05T19:47:46.342Z,13.52
2023-05-05T19:50:15.431Z,13.54
2023-05-05T19:52:42.239Z,13.43
2023-05-05T19:55:10.536Z,13.21
2023-05-05T19:57:37.416Z,13.16
2023-05-05T20:00:04.909Z,13.19
2023-05-05T20:02:33.300Z,13.28
2023-05-05T20:05:00.989Z,13.30
2023-05-05T20:07:27.695Z,13.27
2023-05-05T20:09:54.334Z,13.30
2023-05-05T20:12:23.020Z,13.29
2023-05-05T20:14:49.676Z,13.20
2023-05-05T20:17:20.097Z,13.20
2023-05-05T20:19:47.821Z,13.15
2023-05-05T20:22:14.392Z,13.07
2023-05-05T20:24:40.945Z,12.98
2023-05-05T20:27:08.093Z,12.96
2023-05-05T20:29:34.691Z,13.03
2023-05-05T20:32:01.351Z,12.93
2023-05-05T20:34:28.214Z,12.95
2023-05-05T20:36:54.903Z,12.92
2023-05-05T20:39:21.520Z,12.77
2023-05-05T20:41:48.621Z,12.75
2023-05-05T20:44:17.805Z,12.75
2023-05-05T20:46:44.486Z,12.64
2023-05-05T20:49:11.137Z,12.64
2023-05-05T20:51:37.761Z,12.54
2023-05-05T20:54:04.776Z,12.42
2023-05-05T20:56:31.371Z,12.39
2023-05-05T20:58:57.975Z,12.42
2023-05-05T21:01:24.627Z,12.32
2023-05-05T21:03:51.301Z,12.18
2023-05-05T21:06:19.542Z,12.21
2023-05-05T21:08:47.208Z,12.33
2023-05-05T21:11:13.922Z,12.31
2023-05-05T21:13:40.612Z,12.24
2023-05-05T21:16:07.346Z,12.00
2023-05-05T21:18:34.000Z,11.80
2023-05-05T21:21:00.649Z,11.95
2023-05-05T21:23:27.388Z,11.97
2023-05-05T21:25:54.209Z,11.90
2023-05-05T21:28:20.948Z,11.88
2023-05-05T21:33:23.656Z,11.59
2023-05-05T21:35:50.463Z,11.67
2023-05-05T21:38:17.037Z,11.68
2023-05-05T21:40:43.636Z,11.76
2023-05-05T21:43:10.246Z,11.73
2023-05-05T21:45:36.856Z,11.73
2023-05-05T21:48:03.695Z,11.72
2023-05-05T21:50:30.380Z,11.54
2023-05-05T21:52:56.955Z,11.54
2023-05-05T21:55:23.703Z,11.48
2023-05-05T21:57:50.288Z,11.45
2023-05-05T22:00:16.996Z,11.45
2023-05-05T22:02:45.302Z,11.40
2023-05-05T22:05:12.385Z,11.34
2023-05-05T22:07:39.484Z,11.28
2023-05-05T22:10:08.323Z,11.17
2023-05-05T22:12:35.254Z,11.21
2023-05-05T22:15:01.909Z,11.31
2023-05-05T22:17:28.644Z,11.28
2023-05-05T22:19:55.371Z,11.23
2023-05-05T22:22:22.115Z,11.21
2023-05-05T22:24:48.788Z,11.08
2023-05-05T22:27:15.763Z,11.17
2023-05-05T22:29:42.613Z,11.11
2023-05-05T22:32:12.273Z,11.03
2023-05-05T22:34:38.890Z,10.93
2023-05-05T22:37:05.544Z,11.02
2023-05-05T22:39:33.289Z,10.99
2023-05-05T22:42:00.144Z,11.08
2023-05-05T22:44:26.747Z,11.00
2023-05-05T22:46:53.408Z,11.12
2023-05-05T22:49:20.306Z,11.08
2023-05-05T22:51:48.024Z,11.09
2023-05-05T22:54:14.668Z,11.07
2023-05-05T22:56:41.241Z,10.97
2023-05-05T22:59:08.118Z,10.89
2023-05-05T23:01:35.489Z,10.77
2023-05-05T23:04:02.368Z,10.74
2023-05-05T23:06:29.612Z,10.76
2023-05-05T23:08:56.185Z,10.78
2023-05-05T23:11:22.762Z,10.79
2023-05-05T23:13:49.381Z,10.95
2023-05-05T23:16:16.231Z,11.03
2023-05-05T23:18:42.981Z,10.98
2023-05-05T23:21:10.190Z,10.87
2023-05-05T23:23:36.797Z,10.89
2023-05-05T23:26:03.454Z,10.95
2023-05-05T23:28:30.134Z,10.89
2023-05-05T23:30:56.826Z,10.87
2023-05-05T23:33:23.514Z,10.89
2023-05-05T23:35:50.092Z,10.96
2023-05-05T23:38:16.792Z,10.90
2023-05-05T23:40:43.404Z,10.72
2023-05-05T23:43:11.962Z,10.82
2023-05-05T23:45:38.748Z,10.82
2023-05-05T23:48:05.671Z,10.88
2023-05-05T23:50:32.373Z,10.93
2023-05-05T23:52:58.965Z,10.87
2023-05-05T23:55:25.626Z,10.81
2023-05-05T23:57:53.156Z,10.73
